Time;durP1;ratioP1;P1;durP2;ratioP2;P2;SDS_P1;SDS_P2;PMS_P1;PMS_P2;Temp;Humidity;BMP_temperature;BMP_pressure;BME280_temperature;BME280_humidity;BME280_pressure;Samples;Min_cycle;Max_cycle;Signal;HPM_P1;HPM_P2
2023/04/21 00:01:59;;;;;;;38.40;25.90;;;;;;;6.64;99.26;101411.38;5063804;28;20049;-71
2023/04/21 00:04:27;;;;;;;35.90;25.63;;;;;;;6.65;99.24;101405.25;5054913;28;20576;-71
2023/04/21 00:06:54;;;;;;;37.10;26.65;;;;;;;6.67;99.53;101406.13;5061120;28;20087;-71
2023/04/21 00:09:21;;;;;;;34.33;25.10;;;;;;;6.66;99.68;101398.28;5067024;28;20044;-71
2023/04/21 00:11:48;;;;;;;35.30;26.23;;;;;;;6.65;99.64;101378.19;5049292;28;20041;-71
2023/04/21 00:14:16;;;;;;;36.92;26.80;;;;;;;6.63;99.67;101398.28;5064368;28;20033;-70
2023/04/21 00:16:43;;;;;;;34.83;25.17;;;;;;;6.62;100.00;101372.97;5063823;28;20128;-71
2023/04/21 00:19:12;;;;;;;38.38;27.17;;;;;;;6.61;100.00;101363.38;5075069;28;20037;-70
2023/04/21 00:21:39;;;;;;;39.25;25.60;;;;;;;6.58;100.00;101358.13;5067133;28;20041;-69
2023/04/21 00:24:07;;;;;;;37.67;26.45;;;;;;;6.55;100.00;101356.41;5056421;28;20043;-70
2023/04/21 00:26:34;;;;;;;38.60;26.08;;;;;;;6.55;100.00;101358.16;5080885;28;20532;-70
2023/04/21 00:29:02;;;;;;;37.95;27.52;;;;;;;6.57;100.00;101362.50;5065699;28;20033;-70
2023/04/21 00:31:30;;;;;;;40.72;28.58;;;;;;;6.58;100.00;101361.63;5065291;28;20044;-70
2023/04/21 00:33:57;;;;;;;40.05;27.52;;;;;;;6.59;100.00;101358.13;5066049;28;20599;-70
2023/04/21 00:36:27;;;;;;;42.22;28.17;;;;;;;6.61;100.00;101368.59;5090689;28;20073;-70
2023/04/21 00:38:54;;;;;;;40.05;27.80;;;;;;;6.61;100.00;101372.09;5055222;28;20116;-70
2023/04/21 00:41:22;;;;;;;42.65;28.13;;;;;;;6.60;100.00;101365.13;5062073;28;20040;-70
2023/04/21 00:44:00;;;;;;;43.55;28.08;;;;;;;6.60;100.00;101367.75;5092565;28;20049;-70
2023/04/21 00:46:28;;;;;;;41.33;27.77;;;;;;;6.63;100.00;101364.22;5062422;28;20120;-70
2023/04/21 00:48:57;;;;;;;42.72;28.10;;;;;;;6.62;100.00;101359.88;5076159;28;20037;-71
2023/04/21 00:51:27;;;;;;;41.28;29.15;;;;;;;6.63;100.00;101359.84;5064248;28;20508;-70
2023/04/21 00:53:55;;;;;;;43.72;26.83;;;;;;;6.60;100.00;101351.13;5061005;28;20033;-71
2023/04/21 00:56:25;;;;;;;43.45;30.13;;;;;;;6.60;100.00;101352.03;5063569;28;20036;-71
2023/04/21 00:58:53;;;;;;;43.38;29.48;;;;;;;6.61;100.00;101358.13;5053248;28;20128;-70
2023/04/21 01:01:21;;;;;;;44.95;29.92;;;;;;;6.57;100.00;101344.19;5048574;28;20033;-71
2023/04/21 01:03:49;;;;;;;48.75;29.55;;;;;;;6.62;100.00;101345.00;5058418;28;20042;-70
2023/04/21 01:06:18;;;;;;;42.65;28.50;;;;;;;6.61;100.00;101330.19;5050700;28;20037;-70
2023/04/21 01:08:45;;;;;;;48.25;29.65;;;;;;;6.63;100.00;101332.78;5044360;28;20044;-70
2023/04/21 01:11:15;;;;;;;48.90;29.95;;;;;;;6.61;100.00;101345.03;5052309;28;20044;-70
2023/04/21 01:13:42;;;;;;;49.55;30.65;;;;;;;6.62;100.00;101342.38;5062822;28;20533;-70
2023/04/21 01:16:18;;;;;;;58.05;34.15;;;;;;;6.62;100.00;101329.28;5049550;28;20050;-70
2023/04/21 01:18:45;;;;;;;53.35;33.28;;;;;;;6.65;100.00;101324.03;5046253;28;20045;-70
2023/04/21 01:21:13;;;;;;;56.85;32.35;;;;;;;6.63;100.00;101322.31;5057653;28;20056;-70
2023/04/21 01:23:40;;;;;;;56.95;33.83;;;;;;;6.64;100.00;101340.63;5060429;28;20044;-70
2023/04/21 01:26:07;;;;;;;58.05;33.97;;;;;;;6.62;100.00;101337.13;5060756;28;20048;-70
2023/04/21 01:28:36;;;;;;;56.00;32.25;;;;;;;6.66;100.00;101338.88;5061649;28;20050;-70
2023/04/21 01:31:05;;;;;;;63.55;33.67;;;;;;;6.67;100.00;101331.88;5051707;28;20037;-70
2023/04/21 01:33:32;;;;;;;55.92;31.70;;;;;;;6.66;100.00;101338.88;5063333;28;20037;-70
2023/04/21 01:36:00;;;;;;;56.25;32.05;;;;;;;6.67;100.00;101342.34;5060343;28;20797;-70
2023/04/21 01:38:27;;;;;;;58.45;33.00;;;;;;;6.66;100.00;101335.41;5059697;28;20040;-70
2023/04/21 01:40:58;;;;;;;64.88;35.55;;;;;;;6.64;100.00;101338.00;5066047;28;20040;-70
2023/04/21 01:43:26;;;;;;;63.13;34.58;;;;;;;6.66;100.00;101327.53;5061721;28;20041;-71
2023/04/21 01:45:55;;;;;;;66.88;35.25;;;;;;;6.68;100.00;101320.50;5079594;28;20054;-71
2023/04/21 01:48:22;;;;;;;63.95;34.22;;;;;;;6.67;100.00;101321.41;5078457;28;20037;-71
2023/04/21 01:50:49;;;;;;;66.88;35.08;;;;;;;6.67;100.00;101319.66;5056012;28;20044;-71
2023/04/21 01:53:16;;;;;;;63.85;34.30;;;;;;;6.66;100.00;101312.69;5056898;28;20045;-71
2023/04/21 01:55:43;;;;;;;71.13;36.75;;;;;;;6.69;100.00;101298.69;5063057;28;20095;-70
2023/04/21 01:58:11;;;;;;;72.88;36.53;;;;;;;6.68;100.00;101291.69;5048762;28;20045;-71
2023/04/21 02:00:38;;;;;;;74.80;36.78;;;;;;;6.67;100.00;101297.81;5064256;28;20042;-72
2023/04/21 02:03:05;;;;;;;75.22;37.03;;;;;;;6.67;100.00;101289.94;5064220;28;20052;-70
2023/04/21 02:05:32;;;;;;;77.85;38.45;;;;;;;6.67;100.00;101295.19;5052664;28;20517;-70
2023/04/21 02:08:00;;;;;;;76.82;37.88;;;;;;;6.67;100.00;101300.44;5059840;28;20044;-71
2023/04/21 02:10:27;;;;;;;78.35;37.40;;;;;;;6.68;100.00;101295.19;5053181;28;20049;-70
2023/04/21 02:12:54;;;;;;;80.63;38.45;;;;;;;6.70;100.00;101291.72;5056918;28;20069;-70
2023/04/21 02:15:21;;;;;;;75.22;38.13;;;;;;;6.68;100.00;101291.69;5054380;28;21885;-70
2023/04/21 02:17:48;;;;;;;78.07;38.47;;;;;;;6.69;100.00;101293.44;5049928;28;20033;-70
2023/04/21 02:20:15;;;;;;;86.38;39.13;;;;;;;6.71;100.00;101288.22;5054658;28;20493;-70
2023/04/21 02:22:42;;;;;;;84.03;39.08;;;;;;;6.71;100.00;101289.06;5055983;28;20037;-70
2023/04/21 02:25:09;;;;;;;83.40;39.13;;;;;;;6.70;100.00;101292.56;5075192;28;20528;-70
2023/04/21 02:27:38;;;;;;;88.10;40.72;;;;;;;6.70;100.00;101284.69;5060772;28;20509;-70
2023/04/21 02:30:07;;;;;;;86.35;38.65;;;;;;;6.67;100.00;101274.22;5079370;28;20129;-70
2023/04/21 02:32:34;;;;;;;88.13;38.92;;;;;;;6.70;100.00;101273.38;5049919;28;20037;-70
2023/04/21 02:35:04;;;;;;;86.90;40.88;;;;;;;6.71;100.00;101282.97;5067672;28;20041;-71
2023/04/21 02:37:31;;;;;;;82.53;38.58;;;;;;;6.73;100.00;101286.41;5065587;28;20116;-70
2023/04/21 02:39:58;;;;;;;83.80;39.05;;;;;;;6.72;100.00;101282.94;5062985;28;20124;-71
2023/04/21 02:42:25;;;;;;;93.50;40.45;;;;;;;6.71;100.00;101268.09;5049100;28;20125;-70
2023/04/21 02:44:52;;;;;;;96.47;40.00;;;;;;;6.75;100.00;101276.81;5073395;28;20045;-71
2023/04/21 02:47:19;;;;;;;89.15;39.38;;;;;;;6.75;100.00;101271.56;5065565;28;20033;-70
2023/04/21 02:49:46;;;;;;;91.50;40.33;;;;;;;6.75;100.00;101274.19;5069444;28;20053;-70
2023/04/21 02:52:13;;;;;;;87.68;41.45;;;;;;;6.74;100.00;101273.31;5068624;28;20049;-70
2023/04/21 02:54:40;;;;;;;87.28;40.50;;;;;;;6.73;100.00;101268.97;5085011;28;20053;-70
2023/04/21 02:57:08;;;;;;;89.70;40.35;;;;;;;6.72;100.00;101267.22;5048031;28;20497;-70
2023/04/21 02:59:35;;;;;;;88.25;40.60;;;;;;;6.73;100.00;101270.69;5061640;28;20140;-70
2023/04/21 03:02:02;;;;;;;87.00;40.05;;;;;;;6.72;100.00;101267.22;5072982;28;20121;-71
2023/04/21 03:04:32;;;;;;;93.10;42.60;;;;;;;6.75;100.00;101269.84;5066924;28;20041;-70
2023/04/21 03:07:00;;;;;;;97.40;40.92;;;;;;;6.76;100.00;101274.19;5061115;28;20115;-70
2023/04/21 03:09:27;;;;;;;92.07;41.20;;;;;;;6.76;100.00;101268.06;5065110;28;20626;-70
2023/04/21 03:11:54;;;;;;;101.43;44.28;;;;;;;6.77;100.00;101264.56;5065399;28;20092;-70
2023/04/21 03:14:21;;;;;;;100.97;44.90;;;;;;;6.77;100.00;101260.19;5064090;28;20042;-70
2023/04/21 03:16:48;;;;;;;100.03;43.40;;;;;;;6.78;100.00;101258.44;5046743;28;20540;-70
2023/04/21 03:19:15;;;;;;;97.20;42.08;;;;;;;6.79;100.00;101254.94;5048111;28;20042;-71
2023/04/21 03:21:43;;;;;;;92.53;41.00;;;;;;;6.79;100.00;101252.31;5094787;28;20548;-71
2023/04/21 03:24:10;;;;;;;95.53;42.30;;;;;;;6.78;100.00;101242.72;5067562;28;20099;-70
2023/04/21 03:26:39;;;;;;;97.40;44.28;;;;;;;6.78;100.00;101251.44;5059608;28;20505;-70
2023/04/21 03:29:06;;;;;;;104.53;45.50;;;;;;;6.76;100.00;101249.72;5066858;28;20033;-70
2023/04/21 03:31:33;;;;;;;107.20;44.65;;;;;;;6.78;100.00;101247.97;5046469;28;20502;-69
2023/04/21 03:34:00;;;;;;;109.60;45.45;;;;;;;6.78;100.00;101251.44;5068303;28;20043;-70
2023/04/21 03:36:28;;;;;;;115.40;45.83;;;;;;;6.77;100.00;101252.31;5065352;28;20469;-70
2023/04/21 03:38:55;;;;;;;101.10;44.03;;;;;;;6.80;100.00;101256.69;5067020;28;20121;-71
2023/04/21 03:41:33;;;;;;;98.88;43.88;;;;;;;6.81;100.00;101246.19;5068193;28;20046;-71
2023/04/21 03:44:00;;;;;;;104.75;44.63;;;;;;;6.81;100.00;101250.56;5055636;28;21104;-71
2023/04/21 03:46:27;;;;;;;110.85;46.00;;;;;;;6.79;100.00;101253.19;5061946;28;20100;-70
2023/04/21 03:48:54;;;;;;;105.80;45.30;;;;;;;6.76;100.00;101249.72;5057457;28;20045;-71
2023/04/21 03:51:21;;;;;;;118.85;46.60;;;;;;;6.75;100.00;101240.13;5084690;28;20041;-70
2023/04/21 03:53:48;;;;;;;115.18;48.33;;;;;;;6.77;100.00;101254.09;5061802;28;20033;-71
2023/04/21 03:56:15;;;;;;;123.57;49.22;;;;;;;6.77;100.00;101246.22;5051186;28;20041;-70
2023/04/21 03:58:42;;;;;;;122.95;50.00;;;;;;;6.77;100.00;101246.22;5058069;28;20140;-70
2023/04/21 04:01:09;;;;;;;124.15;50.72;;;;;;;6.75;100.00;101243.63;5055964;28;20795;-70
2023/04/21 04:03:36;;;;;;;121.20;49.67;;;;;;;6.71;100.00;101239.28;5067302;28;20531;-69
2023/04/21 04:06:03;;;;;;;114.28;49.28;;;;;;;6.73;100.00;101244.50;5066581;28;20040;-69
2023/04/21 04:08:30;;;;;;;124.60;49.70;;;;;;;6.73;100.00;101250.63;5066743;28;20037;-69
2023/04/21 04:10:57;;;;;;;122.93;50.67;;;;;;;6.72;100.00;101246.25;5065930;28;20044;-70
2023/04/21 04:13:25;;;;;;;128.73;50.42;;;;;;;6.73;100.00;101247.13;5064838;28;20577;-68
2023/04/21 04:15:52;;;;;;;125.70;50.47;;;;;;;6.73;100.00;101255.88;5048522;28;20037;-69
2023/04/21 04:18:20;;;;;;;121.20;50.88;;;;;;;6.71;100.00;101255.00;5056612;28;20039;-68
2023/04/21 04:20:47;;;;;;;120.60;50.20;;;;;;;6.68;100.00;101247.16;5040237;28;20037;-68
2023/04/21 04:23:14;;;;;;;128.20;51.75;;;;;;;6.70;100.00;101249.78;5050259;28;20048;-69
2023/04/21 04:25:41;;;;;;;122.45;50.13;;;;;;;6.67;100.00;101246.28;5056978;28;20049;-69
2023/04/21 04:28:09;;;;;;;133.60;53.38;;;;;;;6.68;100.00;101252.38;5061478;28;20053;-69
2023/04/21 04:30:36;;;;;;;122.85;50.22;;;;;;;6.66;100.00;101246.31;5063179;28;20103;-69
2023/04/21 04:33:03;;;;;;;122.60;51.17;;;;;;;6.69;100.00;101241.03;5060727;28;20298;-69
2023/04/21 04:35:31;;;;;;;114.97;49.00;;;;;;;6.70;100.00;101241.91;5064008;28;20099;-69
2023/04/21 04:37:58;;;;;;;134.13;52.70;;;;;;;6.71;100.00;101238.41;5076612;28;20529;-70
2023/04/21 04:40:25;;;;;;;124.25;51.20;;;;;;;6.71;100.00;101244.53;5075310;28;20128;-69
2023/04/21 04:42:53;;;;;;;116.03;49.90;;;;;;;6.79;100.00;101245.31;5060827;28;20037;-69
2023/04/21 04:45:21;;;;;;;82.30;40.38;;;;;;;6.92;100.00;101242.59;5061623;28;20468;-70
2023/04/21 04:47:49;;;;;;;117.32;51.00;;;;;;;7.06;100.00;101243.34;5061949;28;20124;-70
2023/04/21 04:50:16;;;;;;;105.30;48.75;;;;;;;7.17;100.00;101245.88;5058395;28;20127;-70
2023/04/21 04:52:45;;;;;;;120.97;52.03;;;;;;;7.22;100.00;101241.47;5065768;28;20037;-71
2023/04/21 04:55:13;;;;;;;111.28;49.15;;;;;;;7.28;100.00;101244.00;5062105;28;20038;-70
2023/04/21 04:57:40;;;;;;;79.13;43.90;;;;;;;7.38;100.00;101249.16;5066711;28;20060;-70
2023/04/21 05:00:10;;;;;;;98.53;47.35;;;;;;;7.43;100.00;101249.97;5074109;28;20033;-70
2023/04/21 05:02:37;;;;;;;97.07;47.75;;;;;;;7.46;100.00;101244.69;5063770;28;20350;-69
2023/04/21 05:05:06;;;;;;;74.72;42.67;;;;;;;7.53;100.00;101256.84;5066504;28;20041;-70
2023/04/21 05:07:34;;;;;;;94.82;46.65;;;;;;;7.65;100.00;101257.59;5063046;28;20089;-70
2023/04/21 05:10:03;;;;;;;75.47;41.35;;;;;;;7.69;100.00;101261.94;5063028;28;20045;-70
2023/04/21 05:12:31;;;;;;;83.32;44.38;;;;;;;7.72;100.00;101254.03;5063975;28;20047;-70
2023/04/21 05:14:58;;;;;;;97.15;45.40;;;;;;;7.69;100.00;101260.16;5060924;28;20033;-70
2023/04/21 05:17:26;;;;;;;79.65;43.38;;;;;;;7.67;100.00;101264.59;5062370;28;20041;-70
2023/04/21 05:19:53;;;;;;;65.05;39.38;;;;;;;7.70;100.00;101269.78;5051284;28;20037;-70
2023/04/21 05:22:20;;;;;;;57.38;37.03;;;;;;;7.81;100.00;101277.56;5047477;28;20061;-70
2023/04/21 05:24:47;;;;;;;69.90;41.35;;;;;;;7.92;100.00;101277.41;5046152;28;20038;-70
2023/04/21 05:27:14;;;;;;;92.47;46.88;;;;;;;7.95;100.00;101280.00;5042708;28;20041;-69
2023/04/21 05:29:41;;;;;;;86.95;43.47;;;;;;;7.86;100.00;101270.47;5045189;28;20037;-69
2023/04/21 05:32:08;;;;;;;90.95;45.78;;;;;;;7.76;100.00;101274.97;5054639;28;20044;-69
2023/04/21 05:34:35;;;;;;;93.13;44.95;;;;;;;7.68;100.00;101273.31;5070597;28;20792;-69
2023/04/21 05:37:02;;;;;;;88.78;44.83;;;;;;;7.65;100.00;101279.47;5058672;28;20132;-69
2023/04/21 05:39:29;;;;;;;95.13;45.58;;;;;;;7.63;100.00;101281.25;5063735;28;20529;-69
2023/04/21 05:41:57;;;;;;;97.85;47.33;;;;;;;7.61;100.00;101283.91;5053971;28;20505;-69
2023/04/21 05:44:24;;;;;;;92.90;44.35;;;;;;;7.61;100.00;101283.00;5050525;28;20567;-69
2023/04/21 05:46:51;;;;;;;96.00;47.97;;;;;;;7.61;100.00;101283.00;5057362;28;20053;-69
2023/04/21 05:49:18;;;;;;;95.45;46.78;;;;;;;7.65;100.00;101287.34;5055213;28;20042;-69
2023/04/21 05:51:45;;;;;;;101.20;48.20;;;;;;;7.68;100.00;101287.31;5058856;28;20037;-69
2023/04/21 05:54:12;;;;;;;108.43;49.28;;;;;;;7.71;100.00;101286.41;5047055;28;20071;-69
2023/04/21 05:56:39;;;;;;;98.72;47.40;;;;;;;7.84;100.00;101282.75;5048552;28;20540;-69
2023/04/21 05:59:06;;;;;;;98.38;45.58;;;;;;;8.14;100.00;101285.88;5065811;28;20082;-69
2023/04/21 06:01:33;;;;;;;108.97;46.47;;;;;;;8.42;100.00;101288.16;5054344;28;20042;-70
2023/04/21 06:04:00;;;;;;;95.22;43.13;;;;;;;8.63;100.00;101284.34;5067528;28;20047;-69
2023/04/21 06:06:28;;;;;;;97.20;44.40;;;;;;;8.80;100.00;101275.38;5057601;28;20552;-69
2023/04/21 06:08:55;;;;;;;92.38;44.55;;;;;;;8.93;100.00;101270.75;5055640;28;20075;-69
2023/04/21 06:11:22;;;;;;;86.80;42.15;;;;;;;9.06;100.00;101277.53;5058426;28;20937;-69
2023/04/21 06:13:51;;;;;;;75.57;40.92;;;;;;;9.15;100.00;101269.50;5050644;28;20047;-69
2023/04/21 06:16:19;;;;;;;78.30;39.40;;;;;;;9.32;100.00;101271.81;5048439;28;20029;-69
2023/04/21 06:18:46;;;;;;;71.85;37.78;;;;;;;9.45;100.00;101271.59;5049906;28;20056;-69
2023/04/21 06:21:13;;;;;;;69.88;38.35;;;;;;;9.51;100.00;101265.34;5056159;28;20480;-70
2023/04/21 06:23:41;;;;;;;60.65;36.78;;;;;;;9.49;99.97;101270.66;5069361;28;20037;-69
2023/04/21 06:26:08;;;;;;;69.25;37.50;;;;;;;9.47;99.88;101267.19;5059755;28;20041;-69
2023/04/21 06:28:36;;;;;;;74.68;40.65;;;;;;;9.42;100.00;101271.66;5062925;28;20037;-69
2023/04/21 06:31:03;;;;;;;66.72;36.22;;;;;;;9.43;100.00;101274.28;5054012;28;20069;-69
2023/04/21 06:33:34;;;;;;;64.30;37.53;;;;;;;9.46;99.93;101265.44;5049320;28;20049;-69
2023/04/21 06:36:02;;;;;;;54.47;33.33;;;;;;;9.56;99.37;101263.53;5065181;28;20046;-69
2023/04/21 06:38:29;;;;;;;61.08;36.92;;;;;;;9.62;99.12;101272.13;5055587;28;20033;-69
2023/04/21 06:40:56;;;;;;;60.97;36.42;;;;;;;9.63;99.09;101275.66;5056279;28;20046;-68
2023/04/21 06:43:23;;;;;;;58.45;35.10;;;;;;;9.55;98.76;101273.16;5074262;28;20033;-69
2023/04/21 06:45:50;;;;;;;59.03;35.70;;;;;;;9.55;99.21;101270.53;5053102;28;20088;-69
2023/04/21 06:48:17;;;;;;;59.58;34.70;;;;;;;9.64;99.11;101272.97;5084184;28;20037;-69
2023/04/21 06:50:45;;;;;;;56.13;35.22;;;;;;;9.75;98.61;101270.16;5068901;28;20050;-69
2023/04/21 06:53:12;;;;;;;57.65;35.10;;;;;;;9.81;98.67;101273.53;5070033;28;20120;-69
2023/04/21 06:55:39;;;;;;;50.65;32.47;;;;;;;9.91;97.60;101272.47;5069042;28;20087;-68
2023/04/21 06:58:06;;;;;;;50.40;31.77;;;;;;;9.95;97.39;101272.38;5067144;28;20040;-70
2023/04/21 07:00:33;;;;;;;55.72;34.88;;;;;;;10.03;97.94;101281.88;5069702;28;20044;-69
2023/04/21 07:03:00;;;;;;;55.40;33.92;;;;;;;10.11;98.78;101274.69;5069171;28;20067;-69
2023/04/21 07:05:27;;;;;;;56.22;34.05;;;;;;;10.20;98.39;101271.84;5069413;28;20622;-69
2023/04/21 07:07:58;;;;;;;49.45;31.23;;;;;;;10.34;97.66;101278.56;5068825;28;20128;-69
2023/04/21 07:10:26;;;;;;;47.10;30.45;;;;;;;10.44;97.33;101272.22;5069564;28;20158;-70
2023/04/21 07:12:55;;;;;;;47.60;30.15;;;;;;;10.50;97.26;101273.84;5059149;28;20044;-69
2023/04/21 07:15:22;;;;;;;43.22;26.98;;;;;;;10.50;96.17;101279.13;5059249;28;20116;-69
2023/04/21 07:17:49;;;;;;;42.28;27.70;;;;;;;10.50;95.40;101269.47;5048694;28;20053;-69
2023/04/21 07:20:17;;;;;;;42.58;27.50;;;;;;;10.53;95.02;101272.00;5048588;28;20038;-69
2023/04/21 07:22:44;;;;;;;41.08;27.58;;;;;;;10.59;95.57;101256.97;5049074;28;20465;-70
2023/04/21 07:25:11;;;;;;;40.45;26.20;;;;;;;10.68;94.66;101256.75;5050153;28;20042;-69
2023/04/21 07:27:39;;;;;;;41.28;26.48;;;;;;;10.70;94.78;101254.94;5067565;28;20034;-69
2023/04/21 07:30:06;;;;;;;36.78;24.83;;;;;;;10.73;93.71;101254.88;5047269;28;20506;-69
2023/04/21 07:32:33;;;;;;;36.58;24.05;;;;;;;10.78;93.75;101254.75;5051534;28;20061;-70
2023/04/21 07:35:01;;;;;;;35.40;23.65;;;;;;;10.79;93.95;101256.47;5080202;28;20037;-69
2023/04/21 07:37:29;;;;;;;32.72;23.42;;;;;;;10.80;92.70;101251.16;5048233;28;20192;-70
2023/04/21 07:39:56;;;;;;;35.95;23.90;;;;;;;10.86;93.08;101255.44;5048958;28;20125;-70
2023/04/21 07:42:24;;;;;;;34.20;23.08;;;;;;;10.94;93.91;101249.94;5048622;28;20049;-69
2023/04/21 07:44:51;;;;;;;34.78;23.58;;;;;;;10.99;92.79;101261.25;5061865;28;20537;-69
2023/04/21 07:47:18;;;;;;;31.70;21.27;;;;;;;11.09;91.08;101256.63;5051258;28;20460;-68
2023/04/21 07:49:45;;;;;;;34.25;23.45;;;;;;;11.21;91.97;101258.91;5063361;28;21112;-69
2023/04/21 07:52:12;;;;;;;35.03;21.88;;;;;;;11.45;92.03;101261.81;5046289;28;20084;-68
2023/04/21 07:54:39;;;;;;;30.55;21.35;;;;;;;11.62;90.19;101266.63;5047035;28;20037;-69
2023/04/21 07:57:07;;;;;;;32.65;21.55;;;;;;;11.76;89.49;101264.47;5056472;28;20091;-68
2023/04/21 07:59:34;;;;;;;31.80;21.52;;;;;;;11.80;90.44;101266.13;5062044;28;20526;-69
2023/04/21 08:02:01;;;;;;;28.63;20.15;;;;;;;11.93;89.45;101263.97;5055690;28;20079;-68
2023/04/21 08:04:28;;;;;;;27.77;19.17;;;;;;;11.93;85.75;101269.25;5055570;28;20057;-69
2023/04/21 08:06:56;;;;;;;33.30;20.20;;;;;;;11.85;85.76;101262.50;5070885;28;20121;-71
2023/04/21 08:09:23;;;;;;;30.35;20.38;;;;;;;11.81;86.72;101261.69;5059792;28;20053;-68
2023/04/21 08:11:50;;;;;;;27.42;19.67;;;;;;;11.82;86.73;101266.06;5064213;28;20071;-68
2023/04/21 08:14:18;;;;;;;35.53;21.38;;;;;;;11.92;87.85;101251.66;5060905;28;20555;-69
2023/04/21 08:16:45;;;;;;;30.17;19.85;;;;;;;12.10;88.88;101255.59;5055228;28;20470;-68
2023/04/21 08:19:13;;;;;;;32.42;20.17;;;;;;;12.30;89.34;101253.25;5063763;28;20050;-69
2023/04/21 08:21:40;;;;;;;24.83;18.40;;;;;;;12.39;86.81;101256.47;5071106;28;20548;-69
2023/04/21 08:24:07;;;;;;;25.70;17.70;;;;;;;12.45;85.10;101254.56;5048080;28;20038;-69
2023/04/21 08:26:34;;;;;;;24.63;18.17;;;;;;;12.50;84.04;101253.50;5056886;28;20044;-70
2023/04/21 08:29:01;;;;;;;27.58;18.55;;;;;;;12.54;84.39;101249.81;5050057;28;20134;-70
2023/04/21 08:31:30;;;;;;;22.77;17.02;;;;;;;12.73;83.47;101251.88;5064378;28;20048;-69
2023/04/21 08:34:00;;;;;;;34.58;18.02;;;;;;;12.82;83.67;101242.78;5049064;28;20092;-69
2023/04/21 08:36:30;;;;;;;23.88;18.10;;;;;;;12.95;84.15;101245.88;5049012;28;20040;-69
2023/04/21 08:38:58;;;;;;;23.38;15.85;;;;;;;13.05;80.30;101250.81;5054762;28;20147;-69
2023/04/21 08:41:26;;;;;;;22.58;16.42;;;;;;;13.02;78.66;101247.41;5061435;28;20040;-69
2023/04/21 08:43:53;;;;;;;23.25;17.50;;;;;;;13.02;79.23;101245.63;5077234;28;20037;-69
2023/04/21 08:46:22;;;;;;;24.23;17.55;;;;;;;13.05;80.34;101253.47;5059492;28;20132;-70
2023/04/21 08:48:50;;;;;;;23.92;15.90;;;;;;;13.15;77.58;101251.34;5065838;28;20476;-70
2023/04/21 08:51:26;;;;;;;22.73;16.95;;;;;;;13.24;80.52;101252.81;5051569;28;20095;-71
2023/04/21 08:53:53;;;;;;;;;;;;;;;13.40;78.61;101253.19;5048131;28;20041;-68
2023/04/21 08:56:23;;;;;;;22.27;16.42;;;;;;;13.57;76.76;101255.22;5049056;28;20518;-68
2023/04/21 08:58:50;;;;;;;21.92;16.55;;;;;;;13.63;75.29;101252.34;5041135;28;20489;-68
2023/04/21 09:01:17;;;;;;;22.45;17.00;;;;;;;13.66;77.04;101244.28;5046951;28;20045;-70
2023/04/21 09:03:44;;;;;;;24.63;18.73;;;;;;;13.77;77.22;101243.88;5062901;28;20041;-68
2023/04/21 09:06:12;;;;;;;24.77;18.30;;;;;;;13.84;79.20;101233.06;5063057;28;20551;-68
2023/04/21 09:08:54;;;;;;;28.10;21.33;;;;;;;13.99;78.30;101245.72;5072739;28;20037;-68
2023/04/21 09:11:21;;;;;;;28.92;19.60;;;;;;;14.15;74.34;101248.66;5063766;28;20582;-68
2023/04/21 09:13:56;;;;;;;28.45;19.90;;;;;;;14.18;76.95;101234.41;5054564;28;20037;-68
2023/04/21 09:16:24;;;;;;;27.80;19.15;;;;;;;14.22;75.07;101239.53;5047602;28;20084;-69
2023/04/21 09:18:51;;;;;;;26.55;20.58;;;;;;;14.21;77.95;101245.75;5065224;28;20608;-69
2023/04/21 09:21:19;;;;;;;28.77;21.35;;;;;;;14.25;77.66;101246.47;5058220;28;20044;-69
2023/04/21 09:23:50;;;;;;;28.08;20.55;;;;;;;14.28;74.06;101241.94;5066571;28;20072;-69
2023/04/21 09:26:21;;;;;;;26.55;19.77;;;;;;;14.25;74.30;101230.56;5062758;28;20041;-69
2023/04/21 09:28:51;;;;;;;27.02;20.33;;;;;;;14.10;74.45;101240.00;5059741;28;20042;-69
2023/04/21 09:31:23;;;;;;;29.17;21.65;;;;;;;14.00;74.08;101250.09;5054203;28;20056;-69
2023/04/21 09:33:55;;;;;;;29.23;22.52;;;;;;;13.95;75.43;101252.94;5063205;28;20063;-69
2023/04/21 09:36:29;;;;;;;30.10;21.90;;;;;;;14.04;76.36;101249.03;5047179;28;20034;-69
2023/04/21 09:39:00;;;;;;;29.38;22.60;;;;;;;14.24;74.38;101255.41;5058804;28;20582;-69
2023/04/21 09:41:31;;;;;;;27.70;20.83;;;;;;;14.30;74.33;101247.19;5063616;28;20420;-69
2023/04/21 09:44:03;;;;;;;27.10;18.90;;;;;;;14.38;72.79;101241.59;5066625;28;20041;-69
2023/04/21 09:46:35;;;;;;;23.38;17.80;;;;;;;14.30;71.31;101244.53;5063365;28;20052;-69
2023/04/21 09:49:05;;;;;;;22.90;16.58;;;;;;;14.21;72.10;101234.28;5064776;28;20069;-68
2023/04/21 09:51:34;;;;;;;24.20;17.95;;;;;;;14.22;74.64;101236.88;5063868;28;20584;-69
2023/04/21 09:54:15;;;;;;;21.55;16.73;;;;;;;14.35;74.14;101239.03;5061357;28;20040;-69
2023/04/21 09:56:52;;;;;;;22.60;16.58;;;;;;;14.31;71.37;101246.25;5065424;28;20497;-68
2023/04/21 09:59:24;;;;;;;;;;;;;;;14.19;72.61;101236.13;5063724;28;20090;-69
2023/04/21 10:01:55;;;;;;;23.63;17.00;;;;;;;14.21;74.53;101227.19;5051853;28;19968;-69
2023/04/21 10:04:24;;;;;;;25.40;18.25;;;;;;;14.42;73.27;101225.47;5055422;28;20532;-69
2023/04/21 10:06:53;;;;;;;24.15;18.58;;;;;;;14.53;72.36;101229.50;5073373;28;20046;-70
2023/04/21 10:09:26;;;;;;;24.05;18.45;;;;;;;14.47;71.69;101219.09;5046452;28;20037;-69
2023/04/21 10:11:54;;;;;;;25.65;19.60;;;;;;;14.54;72.93;101224.13;5059436;28;20122;-69
2023/04/21 10:14:21;;;;;;;26.05;20.00;;;;;;;14.80;72.52;101222.22;5081319;28;20036;-69
2023/04/21 10:17:02;;;;;;;26.67;20.08;;;;;;;15.01;71.21;101217.78;5065536;28;20114;-69
2023/04/21 10:19:35;;;;;;;23.98;18.45;;;;;;;15.04;69.96;101222.09;5063259;28;20037;-69
2023/04/21 10:22:02;;;;;;;24.40;19.23;;;;;;;14.94;70.51;101220.75;5062675;28;20112;-69
2023/04/21 10:24:29;;;;;;;25.15;19.77;;;;;;;15.08;69.22;101223.69;5053431;28;20045;-69
2023/04/21 10:26:58;;;;;;;24.38;18.77;;;;;;;15.15;68.03;101221.63;5045960;28;20038;-68
2023/04/21 10:29:32;;;;;;;24.27;19.27;;;;;;;15.00;68.18;101212.53;5053720;28;20073;-69
2023/04/21 10:32:41;;;;;;;26.63;20.00;;;;;;;14.93;69.25;101216.38;5050055;28;20044;-69
2023/04/21 10:35:22;;;;;;;23.48;19.45;;;;;;;14.94;69.37;101212.78;5062318;28;20045;-69
2023/04/21 10:37:50;;;;;;;27.10;20.60;;;;;;;14.78;70.61;101204.59;5069534;28;20103;-69
2023/04/21 10:40:30;;;;;;;27.38;21.40;;;;;;;14.85;70.14;101200.78;5057315;28;20038;-69
2023/04/21 10:43:46;;;;;;;26.40;20.58;;;;;;;14.94;71.22;101212.78;5052328;28;20048;-70
2023/04/21 10:46:35;;;;;;;25.10;20.10;;;;;;;15.00;70.82;101210.75;5073416;28;20056;-68
2023/04/21 10:49:09;;;;;;;26.92;20.70;;;;;;;15.16;69.90;101196.81;5066892;28;20049;-69
2023/04/21 10:51:58;;;;;;;27.73;21.23;;;;;;;15.52;69.69;101188.97;5074740;28;20033;-69
2023/04/21 10:54:46;;;;;;;24.98;20.38;;;;;;;15.67;70.98;101187.41;5079996;28;20919;-69
2023/04/21 10:57:18;;;;;;;25.95;19.92;;;;;;;15.89;70.62;101182.91;5056983;28;20049;-69
2023/04/21 10:59:48;;;;;;;24.08;19.38;;;;;;;16.25;65.66;101176.75;5046181;28;20135;-70
2023/04/21 11:02:17;;;;;;;26.10;19.50;;;;;;;16.14;66.44;101169.31;5048160;28;20033;-69
2023/04/21 11:04:50;;;;;;;26.85;19.42;;;;;;;16.24;65.34;101159.94;5049542;28;20037;-70
2023/04/21 11:07:23;;;;;;;26.83;20.77;;;;;;;16.28;64.07;101158.00;5057547;28;20041;-70
2023/04/21 11:10:06;;;;;;;26.40;20.27;;;;;;;16.26;63.53;101155.41;5065919;28;20036;-70
2023/04/21 11:12:38;;;;;;;25.35;20.45;;;;;;;16.02;65.33;101154.81;5049138;28;20595;-69
2023/04/21 11:15:12;;;;;;;24.17;18.98;;;;;;;15.94;63.60;101156.97;5058299;28;20041;-69
2023/04/21 11:17:42;;;;;;;25.45;20.73;;;;;;;15.86;64.93;101144.06;5069086;28;20049;-71